Latest Weather Observations for Mount Crawford

IDS60801

Issued at 10:31 am CST Tuesday 16 August 2022 (issued every 10 minutes, with the page automatically refreshed every 10 minutes)

About weather observations | Map of weather stations | Latest weather observations for SA | Other Formats
Station Details ID: 023878 Name: MOUNT CRAWFORD AWS Lat: -34.73 Lon: 138.93 Height: 525.0 m
Data from the previous 72 hours. | See also: Recent months at Mount Crawford
Date/Time
CST
Temp
°C
App
Temp
°C
Dew
Point
°C
Rel
Hum
%
Delta-T
°C
Wind Press
QNH
hPa
Press
MSL
hPa
Rain since
9am
mm
Dir  Spd
km/h
Gust
km/h
Spd
kts
Gust
kts
16/10:30am 10.2 5.9 6.9 80 1.6 SSW 19 26 10 14 1019.8 1020.1 0.0
16/10:00am 9.4 4.7 6.1 80 1.6 SSW 20 30 11 16 1019.5 1019.8 0.0
16/09:30am 9.0 4.1 6.8 86 1.1 SW 22 32 12 17 1019.0 1019.4 0.0
16/09:00am 8.1 5.1 7.5 96 0.3 SW 13 24 7 13 1018.8 1019.1 1.2
16/08:30am 7.7 4.2 7.4 98 0.1 WSW 15 20 8 11 1018.6 1018.9 1.2
16/08:00am 7.1 3.5 6.8 98 0.1 WSW 15 22 8 12 1018.4 1018.7 1.2
16/07:30am 7.1 2.8 6.8 98 0.1 WSW 19 28 10 15 1018.1 1018.4 1.2
16/07:00am 7.0 3.0 6.7 98 0.1 WSW 17 22 9 12 1017.6 1017.9 1.2
16/06:30am 6.8 3.1 6.5 98 0.1 WSW 15 22 8 12 1017.1 1017.3 1.2
16/06:00am 6.4 3.0 6.1 98 0.1 WSW 13 24 7 13 1016.6 1016.9 1.2
16/05:30am 6.1 1.9 5.8 98 0.1 W 17 24 9 13 1016.3 1016.6 1.0
16/05:00am 5.8 1.9 5.5 98 0.1 WSW 15 20 8 11 1015.6 1015.8 1.0
16/04:30am 6.0 2.6 5.7 98 0.1 WSW 13 19 7 10 1014.9 1015.2 1.0
16/04:00am 5.9 2.1 5.6 98 0.1 WSW 15 19 8 10 1015.1 1015.3 1.0
16/03:30am 5.6 1.7 5.2 97 0.2 WSW 15 19 8 10 1014.8 1015.1 1.0
16/03:00am 5.9 1.7 5.6 98 0.1 WSW 17 24 9 13 1014.6 1014.9 1.0
16/02:30am 5.8 2.3 5.5 98 0.1 WSW 13 20 7 11 1014.5 1014.8 1.0
16/02:00am 6.3 2.5 6.0 98 0.1 WSW 15 24 8 13 1014.8 1015.1 1.0
16/01:30am 6.2 2.8 5.9 98 0.1 WSW 13 20 7 11 1014.8 1015.1 1.0
16/01:00am 6.6 2.5 6.3 98 0.1 WSW 17 24 9 13 1014.6 1014.9 1.0
16/12:30am 6.4 2.3 6.1 98 0.1 WSW 17 22 9 12 1014.5 1014.8 1.0
16/12:00am 6.5 2.4 6.2 98 0.1 WSW 17 24 9 13 1014.4 1014.7 1.0
 
Date/Time
CST
Temp
°C
App
Temp
°C
Dew
Point
°C
Rel
Hum
%
Delta-T
°C
Wind Press
QNH
hPa
Press
MSL
hPa
Rain since
9am
mm
Dir  Spd
km/h
Gust
km/h
Spd
kts
Gust
kts
15/11:30pm 6.4 2.3 6.1 98 0.1 WSW 17 22 9 12 1014.2 1014.5 1.0
15/11:00pm 6.6 3.3 6.3 98 0.1 WSW 13 17 7 9 1013.9 1014.1 1.0
15/10:30pm 6.7 3.0 6.4 98 0.1 WSW 15 19 8 10 1013.7 1013.9 1.0
15/10:00pm 6.6 3.3 6.3 98 0.1 WSW 13 17 7 9 1013.2 1013.4 1.0
15/09:30pm 6.7 3.4 6.3 97 0.2 WSW 13 17 7 9 1013.3 1013.5 1.0
15/09:00pm 6.8 3.5 6.4 97 0.2 WSW 13 17 7 9 1013.1 1013.3 1.0
15/08:30pm 6.8 3.1 6.4 97 0.2 WSW 15 17 8 9 1012.5 1012.8 1.0
15/08:00pm 7.1 3.8 6.4 95 0.3 WSW 13 17 7 9 1012.4 1012.7 1.0
15/07:30pm 7.5 3.5 6.6 94 0.4 WSW 17 20 9 11 1012.1 1012.3 0.8
15/07:00pm 7.8 4.5 6.6 92 0.6 SW 13 20 7 11 1011.7 1011.9 0.8
15/06:30pm 7.9 3.9 6.7 92 0.6 SW 17 24 9 13 1011.2 1011.4 0.8
15/06:00pm 8.0 4.0 6.6 91 0.7 WSW 17 26 9 14 1010.5 1010.7 0.8
15/05:30pm 8.7 4.2 6.0 83 1.3 WSW 19 28 10 15 1010.1 1010.3 0.8
15/05:00pm 9.2 4.7 5.9 80 1.6 WSW 19 28 10 15 1009.6 1009.8 0.8
15/04:30pm 10.3 6.3 6.5 77 1.8 WSW 17 24 9 13 1009.3 1009.5 0.8
15/04:00pm 10.8 6.6 7.3 79 1.7 W 19 28 10 15 1009.1 1009.2 0.8
15/03:30pm 9.8 6.0 7.6 86 1.1 WSW 17 26 9 14 1009.1 1009.2 0.8
15/03:00pm 10.1 5.9 7.5 84 1.3 WSW 19 28 10 15 1008.7 1008.9 0.8
15/02:30pm 10.1 5.8 7.7 85 1.2 W 20 28 11 15 1008.6 1008.8 0.8
15/02:00pm 9.8 5.5 7.9 88 0.9 W 20 30 11 16 1008.7 1008.9 0.8
15/01:30pm 9.5 5.7 9.0 97 0.3 W 19 30 10 16 1008.7 1008.9 0.8
15/01:00pm 8.8 5.2 8.5 98 0.1 W 17 26 9 14 1009.1 1009.2 0.8
15/12:30pm 8.5 4.9 8.4 99 0.0 W 17 22 9 12 1009.2 1009.4 0.8
15/12:00pm 8.6 5.4 8.5 99 0.0 W 15 22 8 12 1009.5 1009.7 0.8
15/11:30am 8.2 5.3 8.1 99 0.0 W 13 19 7 10 1009.7 1009.9 0.4
15/11:00am 8.1 4.4 8.0 99 0.0 W 17 24 9 13 1009.7 1009.9 0.2
15/10:30am 8.1 4.4 8.0 99 0.0 W 17 24 9 13 1009.9 1010.1 0.0
15/10:00am 7.7 3.5 7.6 99 0.0 WNW 19 28 10 15 1010.0 1010.2 0.0
15/09:30am 7.5 4.0 7.4 99 0.0 WNW 15 22 8 12 1010.1 1010.3 0.0
15/09:00am 7.1 3.6 7.0 99 0.0 WNW 15 20 8 11 1009.9 1010.1 4.0
15/08:30am 6.8 3.6 6.7 99 0.0 W 13 19 7 10 1009.8 1010.0 4.0
15/08:00am 6.7 3.1 6.6 99 0.0 WNW 15 22 8 12 1009.8 1010.0 4.0
15/07:30am 6.7 2.7 6.6 99 0.0 WNW 17 24 9 13 1009.5 1009.7 4.0
15/07:00am 6.7 2.1 6.6 99 0.0 WNW 20 28 11 15 1009.6 1009.8 4.0
15/06:30am 7.2 2.9 7.1 99 0.0 WNW 19 24 10 13 1009.4 1009.6 2.2
15/06:00am 7.4 3.2 7.3 99 0.0 WNW 19 24 10 13 1009.5 1009.7 1.6
15/05:30am 7.3 3.0 7.2 99 0.0 WNW 19 22 10 12 1009.4 1009.6 1.6
15/05:00am 7.3 3.0 7.2 99 0.0 WNW 19 26 10 14 1009.3 1009.5 1.6
15/04:30am 7.2 2.9 7.1 99 0.0 WNW 19 24 10 13 1009.4 1009.6 1.6
15/04:00am 7.2 2.9 7.1 99 0.0 WNW 19 26 10 14 1009.4 1009.6 1.6
15/03:30am 7.2 2.7 7.1 99 0.0 WNW 20 24 11 13 1009.6 1009.8 1.6
15/03:00am 7.2 2.7 7.1 99 0.0 WNW 20 28 11 15 1009.8 1010.0 1.6
15/02:30am 7.1 2.2 7.0 99 0.0 W 22 32 12 17 1010.2 1010.4 1.4
15/02:00am 7.1 2.2 7.0 99 0.0 WNW 22 28 12 15 1010.6 1010.8 1.4
15/01:30am 7.0 1.7 6.9 99 0.0 WNW 24 33 13 18 1010.9 1011.2 1.4
15/01:00am 7.5 1.6 7.4 99 0.0 WNW 28 37 15 20 1010.9 1011.2 1.4
15/12:30am 7.5 2.3 7.4 99 0.0 WNW 24 32 13 17 1011.2 1011.4 1.4
15/12:00am 7.6 2.8 7.5 99 0.0 WNW 22 30 12 16 1011.4 1011.6 1.4
 
Date/Time
CST
Temp
°C
App
Temp
°C
Dew
Point
°C
Rel
Hum
%
Delta-T
°C
Wind Press
QNH
hPa
Press
MSL
hPa
Rain since
9am
mm
Dir  Spd
km/h
Gust
km/h
Spd
kts
Gust
kts
14/11:30pm 7.6 2.8 7.3 98 0.1 WNW 22 32 12 17 1011.7 1011.9 1.4
14/11:00pm 7.6 2.8 7.3 98 0.1 WNW 22 32 12 17 1011.9 1012.1 1.4
14/10:30pm 7.7 3.5 7.4 98 0.1 WNW 19 26 10 14 1012.3 1012.5 1.2
14/10:00pm 7.7 4.2 7.4 98 0.1 W 15 24 8 13 1012.5 1012.8 1.2
14/09:30pm 7.8 4.0 7.5 98 0.1 WNW 17 24 9 13 1012.7 1013.0 1.2
14/09:00pm 7.8 4.0 7.5 98 0.1 WNW 17 24 9 13 1012.9 1013.2 1.2
14/08:30pm 7.8 4.0 7.5 98 0.1 W 17 24 9 13 1012.9 1013.2 1.2
14/08:00pm 7.5 5.1 7.2 98 0.1 W 9 13 5 7 1012.8 1013.1 1.2
14/07:30pm 7.5 4.4 7.1 97 0.2 W 13 20 7 11 1012.8 1013.1 1.2
14/07:00pm 7.4 4.6 7.0 97 0.2 W 11 15 6 8 1012.8 1013.1 1.2
14/06:30pm 7.4 3.9 7.0 97 0.2 W 15 26 8 14 1012.7 1013.0 1.2
14/06:00pm 8.0 3.2 7.2 95 0.4 W 22 33 12 18 1012.5 1012.8 1.2
14/05:30pm 8.3 4.4 7.2 93 0.5 W 17 26 9 14 1012.4 1012.7 1.2
14/05:00pm 8.8 4.3 7.1 89 0.8 W 20 30 11 16 1012.4 1012.7 1.2
14/04:30pm 9.8 5.4 6.5 80 1.6 WNW 19 32 10 17 1012.4 1012.7 1.2
14/04:00pm 9.4 4.5 6.8 84 1.3 W 22 32 12 17 1012.5 1012.8 1.2
14/03:30pm 9.5 5.1 7.3 86 1.1 W 20 32 11 17 1012.6 1012.9 1.2
14/03:00pm 10.2 5.0 5.4 72 2.3 W 22 33 12 18 1012.6 1012.9 1.2
14/02:30pm 9.6 5.9 8.0 90 0.8 WSW 17 24 9 13 1012.8 1013.1 1.2
14/02:00pm 9.6 4.6 8.2 91 0.7 W 24 35 13 19 1012.8 1013.1 1.2
14/01:30pm 9.1 5.6 8.6 97 0.3 W 17 26 9 14 1013.4 1013.6 1.2
14/01:00pm 9.0 5.4 8.4 96 0.3 W 17 24 9 13 1013.7 1013.9 0.8
14/12:30pm 8.9 5.3 8.5 97 0.2 W 17 28 9 15 1013.9 1014.1 0.8
14/12:00pm 8.7 5.0 7.8 94 0.4 W 17 26 9 14 1014.1 1014.4 0.0
14/11:30am 9.2 5.6 8.4 95 0.4 W 17 24 9 13 1014.3 1014.6 0.0
14/11:00am 8.8 4.6 8.2 96 0.3 W 20 30 11 16 1014.5 1014.8 0.0
14/10:30am 8.8 5.2 8.5 98 0.1 W 17 26 9 14 1014.5 1014.8 0.0
14/10:00am 8.8 5.2 8.5 98 0.1 W 17 22 9 12 1014.6 1014.9 0.0
14/09:30am 8.1 4.0 8.0 99 0.0 WNW 19 26 10 14 1014.6 1014.9 0.0
14/09:00am 7.9 4.1 7.6 98 0.1 W 17 22 9 12 1014.7 1015.0 9.4
14/08:30am 7.8 4.4 7.7 99 0.0 WNW 15 19 8 10 1014.5 1014.8 9.4
14/08:00am 7.4 4.7 7.3 99 0.0 W 11 15 6 8 1014.3 1014.6 9.4
14/07:30am 7.2 4.1 7.1 99 0.0 W 13 19 7 10 1014.1 1014.4 9.4
14/07:00am 7.1 3.6 7.0 99 0.0 WSW 15 19 8 10 1013.6 1013.8 9.4
14/06:30am 7.1 3.1 6.8 98 0.1 WSW 17 28 9 15 1013.1 1013.3 9.4
14/06:00am 7.1 3.2 7.0 99 0.0 WSW 17 22 9 12 1012.9 1013.2 9.4
14/05:30am 7.0 3.0 6.7 98 0.1 WSW 17 22 9 12 1012.6 1012.9 9.4
14/05:00am 7.2 4.0 6.9 98 0.1 WSW 13 19 7 10 1012.8 1013.1 9.4
14/04:30am 7.2 3.6 6.9 98 0.1 WSW 15 22 8 12 1012.5 1012.8 9.4
14/04:00am 7.4 4.3 7.1 98 0.1 WSW 13 19 7 10 1012.5 1012.8 9.4
14/03:30am 7.1 3.9 6.8 98 0.1 WSW 13 17 7 9 1012.4 1012.7 9.4
14/03:00am 7.2 4.4 6.9 98 0.1 WSW 11 20 6 11 1012.5 1012.8 9.4
14/02:30am 7.2 3.6 6.9 98 0.1 WSW 15 19 8 10 1012.7 1013.0 9.2
14/02:00am 7.0 3.4 6.7 98 0.1 WSW 15 22 8 12 1013.1 1013.3 9.2
14/01:30am 6.9 3.3 6.6 98 0.1 W 15 20 8 11 1013.2 1013.4 9.2
14/01:00am 7.4 3.9 7.1 98 0.1 W 15 24 8 13 1013.2 1013.4 9.2
14/12:30am 7.5 4.8 7.2 98 0.1 W 11 15 6 8 1013.4 1013.6 8.6
14/12:00am 7.4 4.3 7.1 98 0.1 WSW 13 20 7 11 1013.4 1013.6 8.2
 
Date/Time
CST
Temp
°C
App
Temp
°C
Dew
Point
°C
Rel
Hum
%
Delta-T
°C
Wind Press
QNH
hPa
Press
MSL
hPa
Rain since
9am
mm
Dir  Spd
km/h
Gust
km/h
Spd
kts
Gust
kts
13/11:30pm 7.4 3.5 7.1 98 0.1 WSW 17 24 9 13 1013.4 1013.6 8.2
13/11:00pm 7.4 3.9 7.1 98 0.1 WSW 15 22 8 12 1013.6 1013.8 8.2
13/10:30pm 7.4 4.3 7.1 98 0.1 W 13 15 7 8 1013.6 1013.8 8.2
13/10:00pm 7.1 3.9 6.8 98 0.1 WSW 13 17 7 9 1013.8 1014.0 8.2
13/09:30pm 7.3 4.1 7.0 98 0.1 W 13 17 7 9 1013.7 1013.9 8.2
13/09:00pm 7.5 4.4 7.2 98 0.1 W 13 17 7 9 1013.8 1014.0 8.2
13/08:30pm 7.6 4.1 7.2 97 0.2 WSW 15 19 8 10 1013.6 1013.8 8.2
13/08:00pm 7.8 4.3 7.4 97 0.2 W 15 22 8 12 1013.3 1013.5 8.2
13/07:30pm 7.7 4.6 7.3 97 0.2 W 13 17 7 9 1013.1 1013.3 8.2
13/07:00pm 7.7 4.2 7.1 96 0.3 W 15 20 8 11 1012.8 1013.1 8.2
13/06:30pm 7.4 3.7 6.5 94 0.4 W 15 20 8 11 1012.5 1012.8 8.2
13/06:00pm 7.5 3.4 6.1 91 0.7 WSW 17 22 9 12 1012.3 1012.5 8.2
13/05:30pm 8.1 4.0 6.1 87 0.9 W 17 24 9 13 1012.1 1012.3 8.2
13/05:00pm 8.5 4.4 6.3 86 1.0 W 17 24 9 13 1012.1 1012.3 8.2
13/04:30pm 9.1 5.2 6.9 86 1.1 W 17 32 9 17 1012.0 1012.2 8.2
13/04:00pm 10.5 6.0 7.0 79 1.7 WSW 20 32 11 17 1011.8 1012.0 8.2
13/03:30pm 10.9 5.6 7.0 77 1.9 W 24 35 13 19 1011.5 1011.7 8.2
13/03:00pm 10.5 6.0 7.0 79 1.7 W 20 33 11 18 1011.6 1011.8 8.2
13/02:30pm 10.8 6.4 7.3 79 1.7 WSW 20 30 11 16 1011.5 1011.7 8.2
13/02:00pm 10.5 5.9 6.6 77 1.9 W 20 32 11 17 1011.5 1011.7 8.2
13/01:30pm 10.4 5.3 7.6 83 1.4 W 24 32 13 17 1011.6 1011.8 8.2
13/01:00pm 9.9 5.9 8.2 89 0.8 WSW 19 28 10 15 1011.9 1012.1 8.2
13/12:30pm 9.5 5.9 8.4 93 0.6 WSW 17 24 9 13 1012.2 1012.4 8.2
13/12:00pm 9.6 6.2 9.3 98 0.2 W 17 24 9 13 1012.5 1012.8 8.2
13/11:30am 8.6 4.7 8.5 99 0.0 WSW 19 26 10 14 1012.6 1012.9 8.2
13/11:00am 7.9 3.6 7.8 99 0.0 WSW 20 30 11 16 1012.6 1012.9 8.2

Other formats

Comma delimited format used in spreadsheet applications
http://www.bom.gov.au/fwo/IDS60801/IDS60801.94678.axf

JavaScript Object Notation format (JSON) in row-major order
http://www.bom.gov.au/fwo/IDS60801/IDS60801.94678.json

Data quality

Most of these data are generated automatically and are frequently updated. Quality checks on data are not normally performed. It is possible for incorrect values to appear. Refer to information at About Latest Weather Observations and please check the disclaimer before using these data.